createdAt,value
2023-03-31T00:07:08.259Z,100156.40
2023-03-31T00:11:40.568Z,100151.56
2023-03-31T00:15:53.369Z,100152.27
2023-03-31T00:20:17.850Z,100154.33
2023-03-31T00:24:34.687Z,100151.83
2023-03-31T00:29:04.633Z,100154.13
2023-03-31T00:33:09.687Z,100152.87
2023-03-31T00:54:01.101Z,100134.78
2023-03-31T00:58:19.910Z,100121.58
2023-03-31T01:02:49.228Z,100116.25
2023-03-31T01:07:08.890Z,100117.30
2023-03-31T01:11:38.358Z,100116.59
2023-03-31T01:15:59.367Z,100111.82
2023-03-31T01:20:41.955Z,100108.28
2023-03-31T01:25:23.412Z,100110.40
2023-03-31T01:52:16.355Z,100086.17
2023-03-31T01:57:01.085Z,100083.44
2023-03-31T02:01:31.140Z,100076.73
2023-03-31T02:06:03.325Z,100078.52
2023-03-31T02:10:31.468Z,100077.70
2023-03-31T02:14:37.496Z,100068.93
2023-03-31T02:19:06.845Z,100070.96
2023-03-31T02:23:04.771Z,100065.54
2023-03-31T02:27:08.587Z,100063.86
2023-03-31T02:31:39.530Z,100058.99
2023-03-31T02:53:15.788Z,100033.59
2023-03-31T02:57:47.018Z,100032.30
2023-03-31T03:02:14.971Z,100035.45
2023-03-31T03:29:00.876Z,100022.17
2023-03-31T03:33:15.929Z,100013.60
2023-03-31T03:37:45.928Z,100010.00
2023-03-31T03:41:40.086Z,100005.61
2023-03-31T03:46:09.994Z,100000.38
2023-03-31T03:50:21.139Z,99998.18
2023-03-31T04:16:20.627Z,99987.45
2023-03-31T04:20:50.057Z,99986.80
2023-03-31T04:25:09.505Z,99981.85
2023-03-31T04:29:23.920Z,99979.34
2023-03-31T04:54:06.822Z,99955.02
2023-03-31T04:58:21.076Z,99958.49
2023-03-31T05:02:25.076Z,99948.35
2023-03-31T05:06:18.952Z,99942.27
2023-03-31T05:10:37.288Z,99938.61
2023-03-31T05:14:14.134Z,99932.16
2023-03-31T05:18:25.839Z,99929.66
2023-03-31T05:22:15.234Z,99928.41
2023-03-31T05:42:13.222Z,99927.17
2023-03-31T05:46:04.576Z,99927.92
2023-03-31T05:50:17.908Z,99925.40
2023-03-31T05:54:06.582Z,99923.20
2023-03-31T05:58:02.739Z,99917.45
2023-03-31T06:02:16.078Z,99914.64
2023-03-31T06:06:37.733Z,99916.84
2023-03-31T06:10:55.972Z,99911.11
2023-03-31T06:15:10.410Z,99913.43
2023-03-31T06:19:11.880Z,99904.58
2023-03-31T06:23:37.982Z,99901.17
2023-03-31T07:07:05.713Z,99871.01
2023-03-31T07:10:58.135Z,99868.14
2023-03-31T07:14:43.036Z,99872.20
2023-03-31T07:18:59.416Z,99874.82
2023-03-31T07:23:10.983Z,99877.30
2023-03-31T07:26:59.244Z,99866.17
2023-03-31T07:31:11.324Z,99854.80
2023-03-31T07:35:05.249Z,99861.04
2023-03-31T07:38:40.726Z,99866.98
2023-03-31T07:42:52.401Z,99863.58
2023-03-31T07:47:06.485Z,99865.01
2023-03-31T07:51:31.010Z,99859.02
2023-03-31T07:55:27.963Z,99852.65
2023-03-31T07:59:34.251Z,99853.23
2023-03-31T08:03:43.190Z,99854.41
2023-03-31T08:08:02.141Z,99844.00
2023-03-31T08:12:06.394Z,99834.26
2023-03-31T08:15:46.863Z,99832.50
2023-03-31T08:19:50.766Z,99835.27
2023-03-31T08:32:13.246Z,99824.19
2023-03-31T09:21:12.360Z,99782.87
2023-03-31T09:24:47.413Z,99780.84
2023-03-31T09:28:38.673Z,99770.27
2023-03-31T09:31:48.825Z,99762.98
2023-03-31T09:35:38.894Z,99754.91
2023-03-31T09:39:19.117Z,99753.98
2023-03-31T09:42:13.406Z,99745.98
2023-03-31T09:45:11.248Z,99744.71
2023-03-31T09:48:21.575Z,99738.55
2023-03-31T09:51:06.702Z,99734.10
2023-03-31T09:54:35.051Z,99732.45
2023-03-31T09:58:07.455Z,99732.34
2023-03-31T10:01:49.982Z,99732.33
2023-03-31T10:05:19.848Z,99721.05
2023-03-31T10:09:30.186Z,99719.52
2023-03-31T10:13:29.593Z,99713.95
2023-03-31T10:17:40.652Z,99713.29
2023-03-31T10:22:06.260Z,99705.48
2023-03-31T10:26:23.190Z,99696.84
2023-03-31T10:30:27.866Z,99689.86
2023-03-31T10:33:49.853Z,99688.68
2023-03-31T10:37:38.525Z,99685.90
2023-03-31T10:41:41.505Z,99682.23
2023-03-31T10:45:35.591Z,99680.86
2023-03-31T10:49:48.530Z,99679.92
2023-03-31T10:54:01.801Z,99670.26
2023-03-31T10:57:06.015Z,99669.20
2023-03-31T11:01:33.323Z,99667.44
2023-03-31T11:05:26.957Z,99662.30
2023-03-31T11:09:29.720Z,99655.87
2023-03-31T11:13:17.145Z,99659.19
2023-03-31T11:17:25.664Z,99652.95
2023-03-31T11:21:27.720Z,99652.17
2023-03-31T11:25:15.430Z,99643.28
2023-03-31T11:28:46.688Z,99636.06
2023-03-31T11:32:45.160Z,99632.27
2023-03-31T11:37:04.743Z,99628.23
2023-03-31T11:41:47.879Z,99622.13
2023-03-31T11:45:44.171Z,99615.48
2023-03-31T11:49:56.834Z,99601.70
2023-03-31T11:53:50.219Z,99593.79
2023-03-31T11:57:30.140Z,99587.65
2023-03-31T12:01:11.108Z,99580.88
2023-03-31T12:05:16.642Z,99565.48
2023-03-31T12:09:46.662Z,99555.41
2023-03-31T12:14:25.964Z,99546.79
2023-03-31T12:18:40.926Z,99540.84
2023-03-31T12:22:58.405Z,99537.87
2023-03-31T12:27:44.528Z,99530.64
2023-03-31T12:31:47.705Z,99528.33
2023-03-31T12:35:57.577Z,99525.60
2023-03-31T12:40:18.083Z,99514.14
2023-03-31T12:43:57.127Z,99506.17
2023-03-31T12:48:12.457Z,99500.11
2023-03-31T12:52:22.971Z,99495.60
2023-03-31T12:56:35.044Z,99485.77
2023-03-31T13:04:39.766Z,99479.93
2023-03-31T13:08:51.673Z,99484.73
2023-03-31T13:12:19.181Z,99478.33
2023-03-31T13:15:50.421Z,99470.24
2023-03-31T13:20:28.241Z,99468.27
2023-03-31T13:24:31.372Z,99456.81
2023-03-31T13:28:50.382Z,99447.05
2023-03-31T13:33:02.062Z,99441.56
2023-03-31T13:37:29.131Z,99434.95
2023-03-31T13:41:57.450Z,99424.42
2023-03-31T13:46:16.066Z,99418.61
2023-03-31T13:50:35.286Z,99414.12
2023-03-31T13:54:41.548Z,99406.96
2023-03-31T13:58:43.575Z,99404.66
2023-03-31T14:03:27.645Z,99401.48
2023-03-31T14:07:33.540Z,99399.25
2023-03-31T14:11:57.461Z,99393.59
2023-03-31T14:16:20.265Z,99390.98
2023-03-31T14:20:43.763Z,99387.21
2023-03-31T14:25:19.664Z,99380.18
2023-03-31T14:29:56.030Z,99379.05
2023-03-31T14:34:23.666Z,99378.43
2023-03-31T14:38:11.242Z,99374.45
2023-03-31T14:42:31.754Z,99369.45
2023-03-31T14:47:00.417Z,99375.17
2023-03-31T14:51:02.871Z,99378.71
2023-03-31T14:55:44.050Z,99379.10
2023-03-31T14:59:59.506Z,99378.44
2023-03-31T15:03:37.339Z,99377.53
2023-03-31T15:06:47.362Z,99374.98
2023-03-31T15:14:05.407Z,99373.00
2023-03-31T15:16:54.549Z,99374.26
2023-03-31T15:20:50.213Z,99367.95
2023-03-31T15:24:14.161Z,99367.73
2023-03-31T15:28:29.233Z,99362.86
2023-03-31T15:31:48.992Z,99363.45
2023-03-31T15:34:43.816Z,99359.29
2023-03-31T15:38:26.333Z,99361.20
2023-03-31T15:41:32.953Z,99358.55
2023-03-31T15:45:16.039Z,99358.00
2023-03-31T15:49:18.599Z,99360.92
2023-03-31T15:53:22.336Z,99355.56
2023-03-31T15:57:16.975Z,99352.27
2023-03-31T16:01:34.805Z,99351.83
2023-03-31T16:04:56.155Z,99352.58
2023-03-31T16:09:11.668Z,99350.39
2023-03-31T16:13:01.995Z,99344.98
2023-03-31T16:17:02.438Z,99343.77
2023-03-31T16:21:06.509Z,99340.44
2023-03-31T16:25:19.293Z,99332.94
2023-03-31T16:29:17.693Z,99331.62
2023-03-31T16:32:54.499Z,99329.07
2023-03-31T16:37:21.066Z,99328.55
2023-03-31T16:41:50.033Z,99328.52
2023-03-31T16:45:59.962Z,99332.27
2023-03-31T16:50:07.880Z,99331.16
2023-03-31T17:27:06.265Z,99346.96
2023-03-31T17:30:48.865Z,99348.48
2023-03-31T17:35:09.513Z,99343.80
2023-03-31T17:39:07.077Z,99347.02
2023-03-31T17:43:15.535Z,99351.79
2023-03-31T17:47:44.749Z,99349.68
2023-03-31T17:51:46.485Z,99354.36
2023-03-31T17:56:16.895Z,99362.19
2023-03-31T18:14:22.426Z,99380.06
2023-03-31T18:18:33.773Z,99383.16
2023-03-31T18:23:02.742Z,99384.99
2023-03-31T18:26:42.614Z,99386.09
2023-03-31T18:30:56.242Z,99391.72
2023-03-31T18:59:58.575Z,99390.39
2023-03-31T19:04:22.131Z,99390.63
2023-03-31T19:08:28.341Z,99392.85
2023-03-31T19:12:30.339Z,99392.80
2023-03-31T19:16:52.933Z,99390.56
2023-03-31T19:20:51.386Z,99389.33
2023-03-31T19:25:08.132Z,99391.43
2023-03-31T19:29:15.901Z,99393.17
2023-03-31T20:00:18.523Z,99384.84
2023-03-31T20:04:22.770Z,99383.09
2023-03-31T20:08:35.759Z,99381.63
2023-03-31T20:12:37.518Z,99378.35
2023-03-31T20:16:38.231Z,99381.17
2023-03-31T21:17:05.730Z,99395.14
2023-03-31T21:20:52.041Z,99392.05
2023-03-31T21:25:00.749Z,99393.50
2023-03-31T21:29:01.009Z,99394.23
2023-03-31T21:33:01.161Z,99395.59
2023-03-31T21:37:19.098Z,99394.08
2023-03-31T21:41:54.243Z,99406.56
2023-03-31T22:33:30.564Z,99420.88
2023-03-31T22:37:32.534Z,99421.95
2023-03-31T22:42:00.993Z,99423.61
2023-03-31T22:46:11.257Z,99426.16
2023-03-31T22:50:40.564Z,99428.52
2023-03-31T22:54:50.777Z,99425.91
2023-03-31T22:58:47.674Z,99432.31
2023-03-31T23:03:17.107Z,99430.27
2023-03-31T23:07:40.127Z,99431.41
2023-03-31T23:11:59.648Z,99425.05
2023-03-31T23:16:17.929Z,99425.88
2023-03-31T23:20:51.092Z,99424.73
2023-03-31T23:25:20.708Z,99426.48
